sensor_id;sensor_type;location;lat;lon;timestamp;temperature;humidity
75430;DHT22;64127;51.488;5.462;2023-02-28T00:01:35;3.00;88.40
75430;DHT22;64127;51.488;5.462;2023-02-28T00:04:07;3.00;88.40
75430;DHT22;64127;51.488;5.462;2023-02-28T00:06:40;3.00;88.50
75430;DHT22;64127;51.488;5.462;2023-02-28T00:09:13;3.00;88.80
75430;DHT22;64127;51.488;5.462;2023-02-28T00:11:45;2.90;88.90
75430;DHT22;64127;51.488;5.462;2023-02-28T00:14:17;2.90;89.00
75430;DHT22;64127;51.488;5.462;2023-02-28T00:16:49;2.90;89.00
75430;DHT22;64127;51.488;5.462;2023-02-28T00:19:21;2.90;89.10
75430;DHT22;64127;51.488;5.462;2023-02-28T00:21:53;2.90;89.10
75430;DHT22;64127;51.488;5.462;2023-02-28T00:24:25;2.90;89.30
75430;DHT22;64127;51.488;5.462;2023-02-28T00:26:57;2.90;89.40
75430;DHT22;64127;51.488;5.462;2023-02-28T00:29:29;2.90;89.50
75430;DHT22;64127;51.488;5.462;2023-02-28T00:32:01;2.80;89.50
75430;DHT22;64127;51.488;5.462;2023-02-28T00:34:34;2.80;89.60
75430;DHT22;64127;51.488;5.462;2023-02-28T00:37:10;2.80;89.80
75430;DHT22;64127;51.488;5.462;2023-02-28T00:39:45;2.80;89.80
75430;DHT22;64127;51.488;5.462;2023-02-28T00:42:18;2.80;90.00
75430;DHT22;64127;51.488;5.462;2023-02-28T00:44:49;2.70;90.00
75430;DHT22;64127;51.488;5.462;2023-02-28T00:47:22;2.80;90.10
75430;DHT22;64127;51.488;5.462;2023-02-28T00:49:54;2.80;90.10
75430;DHT22;64127;51.488;5.462;2023-02-28T00:52:26;2.70;90.10
75430;DHT22;64127;51.488;5.462;2023-02-28T00:54:58;2.70;90.20
75430;DHT22;64127;51.488;5.462;2023-02-28T00:57:30;2.70;90.30
75430;DHT22;64127;51.488;5.462;2023-02-28T01:00:03;2.70;90.40
75430;DHT22;64127;51.488;5.462;2023-02-28T01:02:36;2.70;90.40
75430;DHT22;64127;51.488;5.462;2023-02-28T01:05:08;2.60;90.50
75430;DHT22;64127;51.488;5.462;2023-02-28T01:07:40;2.70;90.60
75430;DHT22;64127;51.488;5.462;2023-02-28T01:10:12;2.60;90.60
75430;DHT22;64127;51.488;5.462;2023-02-28T01:12:44;2.60;90.60
75430;DHT22;64127;51.488;5.462;2023-02-28T01:15:16;2.60;90.70
75430;DHT22;64127;51.488;5.462;2023-02-28T01:17:48;2.60;90.70
75430;DHT22;64127;51.488;5.462;2023-02-28T01:20:20;2.60;90.70
75430;DHT22;64127;51.488;5.462;2023-02-28T01:22:52;2.50;90.80
75430;DHT22;64127;51.488;5.462;2023-02-28T01:25:24;2.50;90.80
75430;DHT22;64127;51.488;5.462;2023-02-28T01:27:56;2.50;90.80
75430;DHT22;64127;51.488;5.462;2023-02-28T01:30:28;2.50;90.80
75430;DHT22;64127;51.488;5.462;2023-02-28T01:33:01;2.50;91.20
75430;DHT22;64127;51.488;5.462;2023-02-28T01:35:34;2.50;90.90
75430;DHT22;64127;51.488;5.462;2023-02-28T01:38:07;2.40;90.80
75430;DHT22;64127;51.488;5.462;2023-02-28T01:40:53;2.40;90.90
75430;DHT22;64127;51.488;5.462;2023-02-28T01:43:30;2.40;91.00
75430;DHT22;64127;51.488;5.462;2023-02-28T01:46:15;2.30;91.40
75430;DHT22;64127;51.488;5.462;2023-02-28T01:51:48;2.30;91.00
75430;DHT22;64127;51.488;5.462;2023-02-28T01:54:29;2.30;91.00
75430;DHT22;64127;51.488;5.462;2023-02-28T01:57:09;2.30;91.00
75430;DHT22;64127;51.488;5.462;2023-02-28T01:59:54;2.30;91.00
75430;DHT22;64127;51.488;5.462;2023-02-28T02:02:30;2.30;91.00
75430;DHT22;64127;51.488;5.462;2023-02-28T02:05:10;2.30;91.00
75430;DHT22;64127;51.488;5.462;2023-02-28T02:07:47;2.30;91.20
75430;DHT22;64127;51.488;5.462;2023-02-28T02:10:46;2.20;91.20
75430;DHT22;64127;51.488;5.462;2023-02-28T02:22:30;2.20;91.50
75430;DHT22;64127;51.488;5.462;2023-02-28T02:25:15;2.20;91.50
75430;DHT22;64127;51.488;5.462;2023-02-28T02:34:59;2.20;91.70
75430;DHT22;64127;51.488;5.462;2023-02-28T02:46:38;2.10;91.70
75430;DHT22;64127;51.488;5.462;2023-02-28T02:49:24;2.10;91.80
75430;DHT22;64127;51.488;5.462;2023-02-28T02:52:04;2.10;91.90
75430;DHT22;64127;51.488;5.462;2023-02-28T02:54:41;2.10;92.00
75430;DHT22;64127;51.488;5.462;2023-02-28T02:57:24;2.10;92.10
75430;DHT22;64127;51.488;5.462;2023-02-28T03:00:00;2.10;92.20
75430;DHT22;64127;51.488;5.462;2023-02-28T03:02:38;2.10;92.20
75430;DHT22;64127;51.488;5.462;2023-02-28T03:05:20;2.10;92.30
75430;DHT22;64127;51.488;5.462;2023-02-28T03:07:57;2.20;92.40
75430;DHT22;64127;51.488;5.462;2023-02-28T03:10:40;2.20;92.40
75430;DHT22;64127;51.488;5.462;2023-02-28T03:26:03;2.30;92.60
75430;DHT22;64127;51.488;5.462;2023-02-28T03:31:28;2.30;92.60
75430;DHT22;64127;51.488;5.462;2023-02-28T03:34:17;2.30;92.70
75430;DHT22;64127;51.488;5.462;2023-02-28T03:36:56;2.30;93.10
75430;DHT22;64127;51.488;5.462;2023-02-28T03:39:42;2.40;92.80
75430;DHT22;64127;51.488;5.462;2023-02-28T03:42:20;2.40;92.90
75430;DHT22;64127;51.488;5.462;2023-02-28T03:45:00;2.40;92.80
75430;DHT22;64127;51.488;5.462;2023-02-28T03:50:50;2.50;93.00
75430;DHT22;64127;51.488;5.462;2023-02-28T03:53:32;2.50;93.00
75430;DHT22;64127;51.488;5.462;2023-02-28T03:56:26;2.60;93.10
75430;DHT22;64127;51.488;5.462;2023-02-28T03:59:08;2.60;93.10
75430;DHT22;64127;51.488;5.462;2023-02-28T04:01:48;2.60;93.00
75430;DHT22;64127;51.488;5.462;2023-02-28T04:04:21;2.70;93.00
75430;DHT22;64127;51.488;5.462;2023-02-28T04:07:02;2.70;93.00
75430;DHT22;64127;51.488;5.462;2023-02-28T04:09:36;2.70;93.10
75430;DHT22;64127;51.488;5.462;2023-02-28T04:12:09;2.70;93.10
75430;DHT22;64127;51.488;5.462;2023-02-28T04:14:41;2.70;93.10
75430;DHT22;64127;51.488;5.462;2023-02-28T04:17:13;2.70;93.10
75430;DHT22;64127;51.488;5.462;2023-02-28T04:19:45;2.80;93.10
75430;DHT22;64127;51.488;5.462;2023-02-28T04:22:17;2.80;93.10
75430;DHT22;64127;51.488;5.462;2023-02-28T04:24:49;2.80;93.10
75430;DHT22;64127;51.488;5.462;2023-02-28T04:27:21;2.80;93.10
75430;DHT22;64127;51.488;5.462;2023-02-28T04:29:53;2.80;93.10
75430;DHT22;64127;51.488;5.462;2023-02-28T04:32:25;2.90;93.20
75430;DHT22;64127;51.488;5.462;2023-02-28T04:34:57;2.90;93.20
75430;DHT22;64127;51.488;5.462;2023-02-28T04:37:29;2.90;93.20
75430;DHT22;64127;51.488;5.462;2023-02-28T04:40:01;2.90;93.20
75430;DHT22;64127;51.488;5.462;2023-02-28T04:42:34;2.90;93.20
75430;DHT22;64127;51.488;5.462;2023-02-28T04:45:08;2.90;93.20
75430;DHT22;64127;51.488;5.462;2023-02-28T04:47:41;3.00;93.30
75430;DHT22;64127;51.488;5.462;2023-02-28T04:50:13;3.00;93.30
75430;DHT22;64127;51.488;5.462;2023-02-28T04:52:45;3.00;93.30
75430;DHT22;64127;51.488;5.462;2023-02-28T04:55:17;3.00;93.30
75430;DHT22;64127;51.488;5.462;2023-02-28T04:57:49;3.00;93.30
75430;DHT22;64127;51.488;5.462;2023-02-28T05:00:21;3.00;93.30
75430;DHT22;64127;51.488;5.462;2023-02-28T05:02:53;3.00;93.30
75430;DHT22;64127;51.488;5.462;2023-02-28T05:05:25;3.00;93.30
75430;DHT22;64127;51.488;5.462;2023-02-28T05:07:57;3.10;93.40
75430;DHT22;64127;51.488;5.462;2023-02-28T05:10:29;3.10;93.50
75430;DHT22;64127;51.488;5.462;2023-02-28T05:13:01;3.10;93.60
75430;DHT22;64127;51.488;5.462;2023-02-28T05:15:33;3.10;93.60
75430;DHT22;64127;51.488;5.462;2023-02-28T05:18:08;3.10;93.70
75430;DHT22;64127;51.488;5.462;2023-02-28T05:20:40;3.10;93.70
75430;DHT22;64127;51.488;5.462;2023-02-28T05:23:13;3.10;93.70
75430;DHT22;64127;51.488;5.462;2023-02-28T05:25:46;3.20;93.70
75430;DHT22;64127;51.488;5.462;2023-02-28T05:28:18;3.20;93.70
75430;DHT22;64127;51.488;5.462;2023-02-28T05:30:50;3.20;93.70
75430;DHT22;64127;51.488;5.462;2023-02-28T05:33:22;3.20;93.70
75430;DHT22;64127;51.488;5.462;2023-02-28T05:35:54;3.20;93.70
75430;DHT22;64127;51.488;5.462;2023-02-28T05:38:27;3.20;93.70
75430;DHT22;64127;51.488;5.462;2023-02-28T05:40:59;3.20;93.70
75430;DHT22;64127;51.488;5.462;2023-02-28T05:43:31;3.20;93.80
75430;DHT22;64127;51.488;5.462;2023-02-28T05:46:08;3.20;93.90
75430;DHT22;64127;51.488;5.462;2023-02-28T05:48:42;3.20;94.00
75430;DHT22;64127;51.488;5.462;2023-02-28T05:51:17;3.20;94.00
75430;DHT22;64127;51.488;5.462;2023-02-28T05:53:49;3.20;94.00
75430;DHT22;64127;51.488;5.462;2023-02-28T05:56:21;3.20;94.00
75430;DHT22;64127;51.488;5.462;2023-02-28T05:58:53;3.20;94.10
75430;DHT22;64127;51.488;5.462;2023-02-28T06:01:43;3.20;94.10
75430;DHT22;64127;51.488;5.462;2023-02-28T06:04:22;3.20;94.20
75430;DHT22;64127;51.488;5.462;2023-02-28T06:07:02;3.20;94.10
75430;DHT22;64127;51.488;5.462;2023-02-28T06:09:35;3.20;94.20
75430;DHT22;64127;51.488;5.462;2023-02-28T06:12:07;3.20;94.20
75430;DHT22;64127;51.488;5.462;2023-02-28T06:14:41;3.20;94.30
75430;DHT22;64127;51.488;5.462;2023-02-28T06:17:13;3.20;94.30
75430;DHT22;64127;51.488;5.462;2023-02-28T06:19:45;3.20;94.30
75430;DHT22;64127;51.488;5.462;2023-02-28T06:22:17;3.20;94.70
75430;DHT22;64127;51.488;5.462;2023-02-28T06:24:49;3.20;94.70
75430;DHT22;64127;51.488;5.462;2023-02-28T06:27:21;3.20;94.70
75430;DHT22;64127;51.488;5.462;2023-02-28T06:29:54;3.20;94.70
75430;DHT22;64127;51.488;5.462;2023-02-28T06:32:27;3.20;94.70
75430;DHT22;64127;51.488;5.462;2023-02-28T06:34:59;3.30;94.70
75430;DHT22;64127;51.488;5.462;2023-02-28T06:37:32;3.30;94.70
75430;DHT22;64127;51.488;5.462;2023-02-28T06:40:04;3.30;94.70
75430;DHT22;64127;51.488;5.462;2023-02-28T06:42:38;3.30;94.70
75430;DHT22;64127;51.488;5.462;2023-02-28T06:45:11;3.30;94.60
75430;DHT22;64127;51.488;5.462;2023-02-28T06:47:43;3.30;94.60
75430;DHT22;64127;51.488;5.462;2023-02-28T06:50:15;3.30;94.50
75430;DHT22;64127;51.488;5.462;2023-02-28T06:52:49;3.30;94.40
75430;DHT22;64127;51.488;5.462;2023-02-28T06:55:25;3.30;94.40
75430;DHT22;64127;51.488;5.462;2023-02-28T06:57:58;3.40;94.30
75430;DHT22;64127;51.488;5.462;2023-02-28T07:00:30;3.40;94.30
75430;DHT22;64127;51.488;5.462;2023-02-28T07:03:02;3.40;94.10
75430;DHT22;64127;51.488;5.462;2023-02-28T07:05:35;3.40;93.90
75430;DHT22;64127;51.488;5.462;2023-02-28T07:08:08;3.40;93.80
75430;DHT22;64127;51.488;5.462;2023-02-28T07:10:40;3.50;93.90
75430;DHT22;64127;51.488;5.462;2023-02-28T07:13:12;3.50;93.90
75430;DHT22;64127;51.488;5.462;2023-02-28T07:15:55;3.60;93.90
75430;DHT22;64127;51.488;5.462;2023-02-28T07:18:29;3.70;93.70
75430;DHT22;64127;51.488;5.462;2023-02-28T07:21:06;3.80;93.50
75430;DHT22;64127;51.488;5.462;2023-02-28T07:23:40;3.80;93.30
75430;DHT22;64127;51.488;5.462;2023-02-28T07:26:16;3.80;93.10
75430;DHT22;64127;51.488;5.462;2023-02-28T07:28:49;3.80;93.00
75430;DHT22;64127;51.488;5.462;2023-02-28T07:31:21;3.80;92.90
75430;DHT22;64127;51.488;5.462;2023-02-28T07:33:54;3.80;92.90
75430;DHT22;64127;51.488;5.462;2023-02-28T07:36:26;3.90;93.00
75430;DHT22;64127;51.488;5.462;2023-02-28T07:38:58;4.00;92.90
75430;DHT22;64127;51.488;5.462;2023-02-28T07:41:30;4.10;92.80
75430;DHT22;64127;51.488;5.462;2023-02-28T07:44:05;4.30;92.70
75430;DHT22;64127;51.488;5.462;2023-02-28T07:46:38;4.50;92.30
75430;DHT22;64127;51.488;5.462;2023-02-28T07:49:10;4.60;92.10
75430;DHT22;64127;51.488;5.462;2023-02-28T07:51:42;4.70;91.70
75430;DHT22;64127;51.488;5.462;2023-02-28T07:54:13;4.80;91.30
75430;DHT22;64127;51.488;5.462;2023-02-28T07:56:45;4.90;90.90
75430;DHT22;64127;51.488;5.462;2023-02-28T07:59:17;4.90;90.60
75430;DHT22;64127;51.488;5.462;2023-02-28T08:01:49;4.80;90.40
75430;DHT22;64127;51.488;5.462;2023-02-28T08:04:22;4.70;90.20
75430;DHT22;64127;51.488;5.462;2023-02-28T08:06:54;4.70;90.10
75430;DHT22;64127;51.488;5.462;2023-02-28T08:09:27;4.70;90.00
75430;DHT22;64127;51.488;5.462;2023-02-28T08:12:01;4.80;89.70
75430;DHT22;64127;51.488;5.462;2023-02-28T08:14:34;4.90;89.50
75430;DHT22;64127;51.488;5.462;2023-02-28T08:17:06;5.00;88.40
75430;DHT22;64127;51.488;5.462;2023-02-28T08:19:38;5.20;87.70
75430;DHT22;64127;51.488;5.462;2023-02-28T08:22:10;5.30;86.80
75430;DHT22;64127;51.488;5.462;2023-02-28T08:24:42;5.40;86.20
75430;DHT22;64127;51.488;5.462;2023-02-28T08:27:15;5.60;85.30
75430;DHT22;64127;51.488;5.462;2023-02-28T08:29:47;5.80;84.60
75430;DHT22;64127;51.488;5.462;2023-02-28T08:32:19;6.10;83.80
75430;DHT22;64127;51.488;5.462;2023-02-28T08:35:00;6.30;82.70
75430;DHT22;64127;51.488;5.462;2023-02-28T08:37:33;6.50;81.40
75430;DHT22;64127;51.488;5.462;2023-02-28T08:40:05;6.60;80.20
75430;DHT22;64127;51.488;5.462;2023-02-28T08:42:38;6.70;79.10
75430;DHT22;64127;51.488;5.462;2023-02-28T08:45:11;6.80;78.30
75430;DHT22;64127;51.488;5.462;2023-02-28T08:47:44;6.90;77.40
75430;DHT22;64127;51.488;5.462;2023-02-28T08:50:16;7.00;76.10
75430;DHT22;64127;51.488;5.462;2023-02-28T08:52:48;7.20;75.70
75430;DHT22;64127;51.488;5.462;2023-02-28T08:55:20;7.30;74.60
75430;DHT22;64127;51.488;5.462;2023-02-28T08:57:52;7.40;73.80
75430;DHT22;64127;51.488;5.462;2023-02-28T09:00:25;7.40;72.50
75430;DHT22;64127;51.488;5.462;2023-02-28T09:02:57;7.40;71.80
75430;DHT22;64127;51.488;5.462;2023-02-28T09:05:29;7.40;71.00
75430;DHT22;64127;51.488;5.462;2023-02-28T09:08:01;7.40;69.60
75430;DHT22;64127;51.488;5.462;2023-02-28T09:10:34;7.40;68.90
75430;DHT22;64127;51.488;5.462;2023-02-28T09:13:06;7.40;68.30
75430;DHT22;64127;51.488;5.462;2023-02-28T09:15:39;7.50;67.20
75430;DHT22;64127;51.488;5.462;2023-02-28T09:18:11;7.50;66.30
75430;DHT22;64127;51.488;5.462;2023-02-28T09:20:44;7.50;65.60
75430;DHT22;64127;51.488;5.462;2023-02-28T09:23:16;7.50;64.90
75430;DHT22;64127;51.488;5.462;2023-02-28T09:25:51;7.40;64.00
75430;DHT22;64127;51.488;5.462;2023-02-28T09:28:24;7.40;63.70
75430;DHT22;64127;51.488;5.462;2023-02-28T09:30:57;7.50;63.40
75430;DHT22;64127;51.488;5.462;2023-02-28T09:33:30;7.60;62.50
75430;DHT22;64127;51.488;5.462;2023-02-28T09:36:03;7.70;62.20
75430;DHT22;64127;51.488;5.462;2023-02-28T09:38:35;7.80;61.70
75430;DHT22;64127;51.488;5.462;2023-02-28T09:41:17;8.10;61.10
75430;DHT22;64127;51.488;5.462;2023-02-28T09:43:55;8.20;60.10
75430;DHT22;64127;51.488;5.462;2023-02-28T09:49:16;8.40;59.30
75430;DHT22;64127;51.488;5.462;2023-02-28T09:51:58;8.50;58.60
75430;DHT22;64127;51.488;5.462;2023-02-28T09:54:33;8.40;57.80
75430;DHT22;64127;51.488;5.462;2023-02-28T09:57:11;8.50;58.00
75430;DHT22;64127;51.488;5.462;2023-02-28T10:03:11;8.60;56.50
75430;DHT22;64127;51.488;5.462;2023-02-28T10:06:28;8.60;56.30
75430;DHT22;64127;51.488;5.462;2023-02-28T10:09:13;8.70;56.30
75430;DHT22;64127;51.488;5.462;2023-02-28T10:12:01;8.70;55.50
75430;DHT22;64127;51.488;5.462;2023-02-28T10:14:39;8.70;55.40
75430;DHT22;64127;51.488;5.462;2023-02-28T10:17:25;8.80;55.30
75430;DHT22;64127;51.488;5.462;2023-02-28T10:20:13;8.80;54.90
75430;DHT22;64127;51.488;5.462;2023-02-28T10:25:50;9.00;54.20
75430;DHT22;64127;51.488;5.462;2023-02-28T10:28:28;9.10;54.10
75430;DHT22;64127;51.488;5.462;2023-02-28T10:31:02;9.20;53.80
75430;DHT22;64127;51.488;5.462;2023-02-28T10:33:35;9.30;53.50
75430;DHT22;64127;51.488;5.462;2023-02-28T10:36:17;9.40;53.20
75430;DHT22;64127;51.488;5.462;2023-02-28T10:38:50;9.40;52.70
75430;DHT22;64127;51.488;5.462;2023-02-28T10:41:31;9.50;52.70
75430;DHT22;64127;51.488;5.462;2023-02-28T10:44:21;9.50;52.50
75430;DHT22;64127;51.488;5.462;2023-02-28T10:46:55;9.60;52.90
75430;DHT22;64127;51.488;5.462;2023-02-28T10:49:28;9.60;52.20
75430;DHT22;64127;51.488;5.462;2023-02-28T10:52:01;9.70;51.90
75430;DHT22;64127;51.488;5.462;2023-02-28T10:54:36;9.70;51.70
75430;DHT22;64127;51.488;5.462;2023-02-28T10:57:22;9.70;51.60
75430;DHT22;64127;51.488;5.462;2023-02-28T11:00:31;9.80;51.50
75430;DHT22;64127;51.488;5.462;2023-02-28T11:03:29;9.90;51.50
75430;DHT22;64127;51.488;5.462;2023-02-28T11:06:07;10.10;50.70
75430;DHT22;64127;51.488;5.462;2023-02-28T11:08:54;10.30;50.50
75430;DHT22;64127;51.488;5.462;2023-02-28T11:11:30;10.30;50.30
75430;DHT22;64127;51.488;5.462;2023-02-28T11:14:36;10.30;50.30
75430;DHT22;64127;51.488;5.462;2023-02-28T11:17:27;10.40;50.10
75430;DHT22;64127;51.488;5.462;2023-02-28T11:20:04;10.50;50.00
75430;DHT22;64127;51.488;5.462;2023-02-28T11:22:40;10.50;49.70
75430;DHT22;64127;51.488;5.462;2023-02-28T11:25:33;10.40;49.40
75430;DHT22;64127;51.488;5.462;2023-02-28T11:28:35;10.30;49.20
75430;DHT22;64127;51.488;5.462;2023-02-28T11:33:52;10.30;49.30
75430;DHT22;64127;51.488;5.462;2023-02-28T11:36:31;10.40;49.30
75430;DHT22;64127;51.488;5.462;2023-02-28T11:39:10;10.50;49.10
75430;DHT22;64127;51.488;5.462;2023-02-28T11:45:18;10.50;48.90
75430;DHT22;64127;51.488;5.462;2023-02-28T11:52:34;10.80;48.60
75430;DHT22;64127;51.488;5.462;2023-02-28T11:55:18;11.00;48.70
75430;DHT22;64127;51.488;5.462;2023-02-28T12:08:25;11.00;48.60
75430;DHT22;64127;51.488;5.462;2023-02-28T12:14:13;11.10;48.40
75430;DHT22;64127;51.488;5.462;2023-02-28T12:23:19;11.10;48.20
75430;DHT22;64127;51.488;5.462;2023-02-28T12:29:29;11.10;48.60
75430;DHT22;64127;51.488;5.462;2023-02-28T12:32:10;11.10;47.80
75430;DHT22;64127;51.488;5.462;2023-02-28T12:34:50;11.00;47.80
75430;DHT22;64127;51.488;5.462;2023-02-28T12:41:08;11.30;48.00
75430;DHT22;64127;51.488;5.462;2023-02-28T12:43:46;11.50;47.60
75430;DHT22;64127;51.488;5.462;2023-02-28T12:46:34;11.50;47.60
75430;DHT22;64127;51.488;5.462;2023-02-28T12:49:38;11.60;47.60
75430;DHT22;64127;51.488;5.462;2023-02-28T12:52:19;11.60;47.10
75430;DHT22;64127;51.488;5.462;2023-02-28T13:10:00;11.90;46.90
75430;DHT22;64127;51.488;5.462;2023-02-28T13:12:35;12.10;46.80
75430;DHT22;64127;51.488;5.462;2023-02-28T13:15:25;12.30;46.50
75430;DHT22;64127;51.488;5.462;2023-02-28T13:18:02;12.40;46.20
75430;DHT22;64127;51.488;5.462;2023-02-28T13:20:36;12.50;46.20
75430;DHT22;64127;51.488;5.462;2023-02-28T13:23:55;12.60;45.80
75430;DHT22;64127;51.488;5.462;2023-02-28T13:40:27;13.20;44.90
75430;DHT22;64127;51.488;5.462;2023-02-28T13:43:03;13.30;44.90
75430;DHT22;64127;51.488;5.462;2023-02-28T13:45:39;13.30;44.80
75430;DHT22;64127;51.488;5.462;2023-02-28T13:48:40;13.40;44.50
75430;DHT22;64127;51.488;5.462;2023-02-28T14:07:04;14.50;43.40
75430;DHT22;64127;51.488;5.462;2023-02-28T14:09:40;14.50;43.30
75430;DHT22;64127;51.488;5.462;2023-02-28T14:15:40;14.80;42.70
75430;DHT22;64127;51.488;5.462;2023-02-28T14:18:35;14.80;42.70
75430;DHT22;64127;51.488;5.462;2023-02-28T14:29:56;15.20;42.00
75430;DHT22;64127;51.488;5.462;2023-02-28T14:36:24;15.10;41.70
75430;DHT22;64127;51.488;5.462;2023-02-28T14:39:07;15.20;41.70
75430;DHT22;64127;51.488;5.462;2023-02-28T14:41:44;15.30;41.50
75430;DHT22;64127;51.488;5.462;2023-02-28T14:44:26;15.30;41.20
75430;DHT22;64127;51.488;5.462;2023-02-28T14:47:02;15.40;41.10
75430;DHT22;64127;51.488;5.462;2023-02-28T14:49:44;15.60;41.00
75430;DHT22;64127;51.488;5.462;2023-02-28T14:52:22;15.50;40.40
75430;DHT22;64127;51.488;5.462;2023-02-28T14:54:58;15.40;40.40
75430;DHT22;64127;51.488;5.462;2023-02-28T14:57:41;15.40;40.40
75430;DHT22;64127;51.488;5.462;2023-02-28T15:00:32;15.60;40.20
75430;DHT22;64127;51.488;5.462;2023-02-28T15:03:43;15.70;39.70
75430;DHT22;64127;51.488;5.462;2023-02-28T15:06:17;15.70;39.30
75430;DHT22;64127;51.488;5.462;2023-02-28T15:09:07;15.70;39.50
75430;DHT22;64127;51.488;5.462;2023-02-28T15:11:50;15.90;38.90
75430;DHT22;64127;51.488;5.462;2023-02-28T15:14:22;16.20;39.10
75430;DHT22;64127;51.488;5.462;2023-02-28T15:17:02;16.40;38.70
75430;DHT22;64127;51.488;5.462;2023-02-28T15:19:41;16.50;38.40
75430;DHT22;64127;51.488;5.462;2023-02-28T15:22:33;16.70;38.30
75430;DHT22;64127;51.488;5.462;2023-02-28T15:25:13;17.00;38.20
75430;DHT22;64127;51.488;5.462;2023-02-28T15:27:52;17.00;37.80
75430;DHT22;64127;51.488;5.462;2023-02-28T15:30:29;17.00;37.80
75430;DHT22;64127;51.488;5.462;2023-02-28T15:35:43;17.20;37.70
75430;DHT22;64127;51.488;5.462;2023-02-28T15:38:35;17.30;37.60
75430;DHT22;64127;51.488;5.462;2023-02-28T15:41:25;17.30;37.20
75430;DHT22;64127;51.488;5.462;2023-02-28T15:47:04;17.20;37.00
75430;DHT22;64127;51.488;5.462;2023-02-28T15:50:00;17.30;37.20
75430;DHT22;64127;51.488;5.462;2023-02-28T15:52:42;17.50;37.00
75430;DHT22;64127;51.488;5.462;2023-02-28T15:55:20;17.50;36.80
75430;DHT22;64127;51.488;5.462;2023-02-28T15:57:57;17.40;36.80
75430;DHT22;64127;51.488;5.462;2023-02-28T16:00:33;17.30;37.00
75430;DHT22;64127;51.488;5.462;2023-02-28T16:03:25;17.20;37.00
75430;DHT22;64127;51.488;5.462;2023-02-28T16:09:13;17.40;36.80
75430;DHT22;64127;51.488;5.462;2023-02-28T16:11:49;17.20;36.80
75430;DHT22;64127;51.488;5.462;2023-02-28T16:14:26;17.00;36.90
75430;DHT22;64127;51.488;5.462;2023-02-28T16:17:27;16.90;37.00
75430;DHT22;64127;51.488;5.462;2023-02-28T16:20:05;16.90;36.80
75430;DHT22;64127;51.488;5.462;2023-02-28T16:22:44;16.60;37.10
75430;DHT22;64127;51.488;5.462;2023-02-28T16:25:20;16.50;37.20
75430;DHT22;64127;51.488;5.462;2023-02-28T16:27:55;16.40;37.30
75430;DHT22;64127;51.488;5.462;2023-02-28T16:30:31;16.30;37.30
75430;DHT22;64127;51.488;5.462;2023-02-28T16:33:03;16.20;37.40
75430;DHT22;64127;51.488;5.462;2023-02-28T16:35:36;16.10;37.50
75430;DHT22;64127;51.488;5.462;2023-02-28T16:38:08;15.80;37.60
75430;DHT22;64127;51.488;5.462;2023-02-28T16:40:40;15.50;37.80
75430;DHT22;64127;51.488;5.462;2023-02-28T16:43:17;15.10;38.30
75430;DHT22;64127;51.488;5.462;2023-02-28T16:45:56;14.60;38.40
75430;DHT22;64127;51.488;5.462;2023-02-28T16:48:34;14.30;38.90
75430;DHT22;64127;51.488;5.462;2023-02-28T16:51:12;13.80;39.10
75430;DHT22;64127;51.488;5.462;2023-02-28T16:53:46;13.30;39.60
75430;DHT22;64127;51.488;5.462;2023-02-28T16:56:23;12.80;40.10
75430;DHT22;64127;51.488;5.462;2023-02-28T16:58:59;12.10;40.50
75430;DHT22;64127;51.488;5.462;2023-02-28T17:01:32;11.60;41.10
75430;DHT22;64127;51.488;5.462;2023-02-28T17:04:05;11.10;41.70
75430;DHT22;64127;51.488;5.462;2023-02-28T17:06:39;10.70;42.20
75430;DHT22;64127;51.488;5.462;2023-02-28T17:09:16;10.40;42.60
75430;DHT22;64127;51.488;5.462;2023-02-28T17:11:50;10.20;43.10
75430;DHT22;64127;51.488;5.462;2023-02-28T17:14:22;10.00;43.40
75430;DHT22;64127;51.488;5.462;2023-02-28T17:16:55;9.80;44.50
75430;DHT22;64127;51.488;5.462;2023-02-28T17:19:27;9.70;44.80
75430;DHT22;64127;51.488;5.462;2023-02-28T17:21:59;9.60;45.00
75430;DHT22;64127;51.488;5.462;2023-02-28T17:24:32;9.50;45.40
75430;DHT22;64127;51.488;5.462;2023-02-28T17:27:04;9.40;45.50
75430;DHT22;64127;51.488;5.462;2023-02-28T17:29:37;9.30;45.70
75430;DHT22;64127;51.488;5.462;2023-02-28T17:32:09;9.30;46.00
75430;DHT22;64127;51.488;5.462;2023-02-28T17:34:48;9.10;46.10
75430;DHT22;64127;51.488;5.462;2023-02-28T17:37:21;9.10;46.50
75430;DHT22;64127;51.488;5.462;2023-02-28T17:39:53;9.00;46.60
75430;DHT22;64127;51.488;5.462;2023-02-28T17:42:25;8.90;46.80
75430;DHT22;64127;51.488;5.462;2023-02-28T17:44:57;8.90;47.00
75430;DHT22;64127;51.488;5.462;2023-02-28T17:47:29;8.80;47.10
75430;DHT22;64127;51.488;5.462;2023-02-28T17:50:01;8.70;47.20
75430;DHT22;64127;51.488;5.462;2023-02-28T17:52:34;8.70;47.50
75430;DHT22;64127;51.488;5.462;2023-02-28T17:55:09;8.60;47.70
75430;DHT22;64127;51.488;5.462;2023-02-28T17:57:41;8.60;47.70
75430;DHT22;64127;51.488;5.462;2023-02-28T18:00:15;8.50;47.70
75430;DHT22;64127;51.488;5.462;2023-02-28T18:02:49;8.50;48.00
75430;DHT22;64127;51.488;5.462;2023-02-28T18:05:21;8.50;48.20
75430;DHT22;64127;51.488;5.462;2023-02-28T18:07:53;8.50;49.50
75430;DHT22;64127;51.488;5.462;2023-02-28T18:10:25;8.40;49.70
75430;DHT22;64127;51.488;5.462;2023-02-28T18:12:59;8.40;49.70
75430;DHT22;64127;51.488;5.462;2023-02-28T18:15:31;8.40;49.70
75430;DHT22;64127;51.488;5.462;2023-02-28T18:18:03;8.40;49.70
75430;DHT22;64127;51.488;5.462;2023-02-28T18:20:35;8.30;49.90
75430;DHT22;64127;51.488;5.462;2023-02-28T18:23:08;8.20;50.10
75430;DHT22;64127;51.488;5.462;2023-02-28T18:25:40;8.20;50.30
75430;DHT22;64127;51.488;5.462;2023-02-28T18:28:12;8.10;50.60
75430;DHT22;64127;51.488;5.462;2023-02-28T18:30:44;8.00;50.80
75430;DHT22;64127;51.488;5.462;2023-02-28T18:33:16;8.00;51.10
75430;DHT22;64127;51.488;5.462;2023-02-28T18:35:55;7.90;51.30
75430;DHT22;64127;51.488;5.462;2023-02-28T18:38:27;7.80;51.50
75430;DHT22;64127;51.488;5.462;2023-02-28T18:41:03;7.70;51.40
75430;DHT22;64127;51.488;5.462;2023-02-28T18:43:37;7.70;51.80
75430;DHT22;64127;51.488;5.462;2023-02-28T18:46:12;7.60;52.10
75430;DHT22;64127;51.488;5.462;2023-02-28T18:48:45;7.60;52.30
75430;DHT22;64127;51.488;5.462;2023-02-28T18:51:21;7.50;52.60
75430;DHT22;64127;51.488;5.462;2023-02-28T18:53:54;7.50;52.80
75430;DHT22;64127;51.488;5.462;2023-02-28T18:56:26;7.30;52.90
75430;DHT22;64127;51.488;5.462;2023-02-28T18:58:59;7.30;53.00
75430;DHT22;64127;51.488;5.462;2023-02-28T19:01:31;7.20;53.10
75430;DHT22;64127;51.488;5.462;2023-02-28T19:04:04;7.20;53.30
75430;DHT22;64127;51.488;5.462;2023-02-28T19:06:37;7.10;53.50
75430;DHT22;64127;51.488;5.462;2023-02-28T19:09:10;7.10;53.70
75430;DHT22;64127;51.488;5.462;2023-02-28T19:11:42;7.00;53.90
75430;DHT22;64127;51.488;5.462;2023-02-28T19:14:14;6.90;54.20
75430;DHT22;64127;51.488;5.462;2023-02-28T19:16:46;6.90;54.40
75430;DHT22;64127;51.488;5.462;2023-02-28T19:19:18;6.80;54.40
75430;DHT22;64127;51.488;5.462;2023-02-28T19:21:50;6.80;54.50
75430;DHT22;64127;51.488;5.462;2023-02-28T19:24:22;6.70;54.70